createdAt,value
2019-03-29T00:01:53.785Z,1.67
2019-03-29T00:04:20.149Z,1.92
2019-03-29T00:06:46.521Z,2.08
2019-03-29T00:09:13.019Z,1.95
2019-03-29T00:11:39.392Z,1.75
2019-03-29T00:14:05.775Z,1.80
2019-03-29T00:16:32.134Z,1.67
2019-03-29T00:18:58.518Z,1.90
2019-03-29T00:21:24.843Z,1.98
2019-03-29T00:23:51.200Z,1.70
2019-03-29T00:26:17.600Z,1.80
2019-03-29T00:28:45.174Z,1.77
2019-03-29T00:31:11.522Z,2.00
2019-03-29T00:33:37.891Z,1.50
2019-03-29T00:36:05.494Z,2.00
2019-03-29T00:38:31.860Z,1.80
2019-03-29T00:40:58.942Z,1.95
2019-03-29T00:43:25.502Z,1.95
2019-03-29T00:45:51.938Z,1.85
2019-03-29T00:48:18.331Z,1.60
2019-03-29T00:50:44.694Z,1.92
2019-03-29T00:53:11.155Z,1.87
2019-03-29T00:55:37.592Z,1.70
2019-03-29T00:58:03.979Z,1.60
2019-03-29T01:00:31.578Z,1.52
2019-03-29T01:02:58.424Z,1.80
2019-03-29T01:05:24.996Z,1.90
2019-03-29T01:07:51.561Z,1.62
2019-03-29T01:10:18.139Z,1.47
2019-03-29T01:12:44.733Z,1.65
2019-03-29T01:15:11.206Z,1.72
2019-03-29T01:17:37.567Z,1.85
2019-03-29T01:20:05.375Z,1.60
2019-03-29T01:22:32.024Z,1.60
2019-03-29T01:24:58.519Z,1.52
2019-03-29T01:27:24.870Z,1.40
2019-03-29T01:29:51.216Z,1.80
2019-03-29T01:32:17.579Z,1.80
2019-03-29T01:34:44.178Z,1.90
2019-03-29T01:37:10.530Z,1.70
2019-03-29T01:39:36.876Z,1.90
2019-03-29T01:42:04.362Z,1.67
2019-03-29T01:44:30.879Z,1.57
2019-03-29T01:46:57.319Z,1.40
2019-03-29T01:49:23.684Z,1.60
2019-03-29T01:51:50.030Z,1.50
2019-03-29T01:54:16.448Z,1.50
2019-03-29T01:56:42.925Z,1.77
2019-03-29T01:59:09.383Z,1.90
2019-03-29T02:01:35.772Z,1.70
2019-03-29T02:04:05.486Z,1.87
2019-03-29T02:06:30.663Z,1.55
2019-03-29T02:08:57.118Z,1.45
2019-03-29T02:11:23.493Z,1.40
2019-03-29T02:13:49.991Z,1.40
2019-03-29T02:16:16.509Z,1.60
2019-03-29T02:18:42.933Z,1.42
2019-03-29T02:21:09.303Z,1.42
2019-03-29T02:23:35.653Z,1.35
2019-03-29T02:26:02.016Z,1.80
2019-03-29T02:28:28.464Z,1.50
2019-03-29T02:30:57.351Z,1.47
2019-03-29T02:33:23.800Z,1.40
2019-03-29T02:35:50.168Z,1.45
2019-03-29T02:38:16.549Z,1.42
2019-03-29T02:40:46.187Z,1.60
2019-03-29T02:43:12.655Z,1.40
2019-03-29T02:45:40.182Z,1.57
2019-03-29T02:48:06.636Z,1.52
2019-03-29T02:50:33.003Z,1.60
2019-03-29T02:52:59.362Z,1.62
2019-03-29T02:55:25.730Z,1.45
2019-03-29T02:57:52.203Z,1.40
2019-03-29T03:00:18.601Z,1.60
2019-03-29T03:02:45.128Z,1.37
2019-03-29T03:05:11.492Z,1.60
2019-03-29T03:07:38.950Z,1.32
2019-03-29T03:10:07.310Z,1.40
2019-03-29T03:12:33.674Z,1.80
2019-03-29T03:15:00.434Z,1.60
2019-03-29T03:17:26.925Z,1.32
2019-03-29T03:19:53.511Z,1.60
2019-03-29T03:22:19.958Z,1.40
2019-03-29T03:24:47.323Z,1.32
2019-03-29T03:27:13.786Z,1.30
2019-03-29T03:29:40.156Z,1.27
2019-03-29T03:32:06.617Z,1.45
2019-03-29T03:34:33.057Z,1.32
2019-03-29T03:36:59.464Z,1.60
2019-03-29T03:39:32.215Z,1.32
2019-03-29T03:41:54.074Z,1.50
2019-03-29T03:44:21.586Z,1.60
2019-03-29T03:46:48.021Z,1.40
2019-03-29T03:49:14.392Z,1.30
2019-03-29T03:51:40.789Z,1.40
2019-03-29T03:54:09.223Z,1.60
2019-03-29T03:56:36.622Z,1.45
2019-03-29T03:59:02.983Z,1.40
2019-03-29T04:01:29.453Z,1.37
2019-03-29T04:03:56.042Z,1.50
2019-03-29T04:06:22.391Z,1.50
2019-03-29T04:08:49.880Z,1.50
2019-03-29T04:11:16.276Z,1.30
2019-03-29T04:13:42.670Z,1.47
2019-03-29T04:16:09.025Z,1.50
2019-03-29T04:18:35.402Z,1.42
2019-03-29T04:21:01.772Z,1.27
2019-03-29T04:23:28.285Z,1.70
2019-03-29T04:25:54.846Z,1.22
2019-03-29T04:28:21.299Z,1.20
2019-03-29T04:30:47.786Z,1.62
2019-03-29T04:33:14.231Z,1.40
2019-03-29T04:35:40.642Z,1.40
2019-03-29T04:38:07.153Z,1.45
2019-03-29T04:40:33.662Z,1.22
2019-03-29T04:43:00.000Z,1.15
2019-03-29T04:45:26.372Z,1.30
2019-03-29T04:47:52.750Z,1.27
2019-03-29T04:50:19.164Z,1.47
2019-03-29T04:52:45.510Z,1.05
2019-03-29T04:55:11.902Z,1.42
2019-03-29T04:57:38.246Z,1.12
2019-03-29T05:00:05.027Z,1.30
2019-03-29T05:02:31.526Z,1.20
2019-03-29T05:04:58.011Z,1.20
2019-03-29T05:07:24.390Z,1.22
2019-03-29T05:09:50.753Z,1.30
2019-03-29T05:12:17.147Z,1.32
2019-03-29T05:14:43.646Z,1.20
2019-03-29T05:17:10.030Z,1.20
2019-03-29T05:19:36.401Z,1.52
2019-03-29T05:22:02.852Z,1.45
2019-03-29T05:24:29.549Z,0.93
2019-03-29T05:26:55.968Z,1.35
2019-03-29T05:29:22.326Z,1.40
2019-03-29T05:31:48.710Z,1.50
2019-03-29T05:34:15.059Z,1.37
2019-03-29T05:36:41.443Z,1.50
2019-03-29T05:39:07.778Z,1.65
2019-03-29T05:41:34.184Z,1.20
2019-03-29T05:44:00.576Z,1.20
2019-03-29T05:46:27.038Z,1.82
2019-03-29T05:48:53.388Z,7.22
2019-03-29T05:51:19.752Z,10.75
2019-03-29T05:53:46.134Z,14.35
2019-03-29T05:56:12.579Z,14.63
2019-03-29T05:58:39.293Z,18.95
2019-03-29T06:01:05.644Z,23.67
2019-03-29T06:03:32.020Z,22.93
2019-03-29T06:05:58.916Z,22.85
2019-03-29T06:08:25.388Z,22.10
2019-03-29T06:10:51.752Z,19.92
2019-03-29T06:13:18.132Z,17.62
2019-03-29T06:15:44.616Z,17.07
2019-03-29T06:18:11.075Z,18.17
2019-03-29T06:20:55.811Z,15.95
2019-03-29T06:23:22.315Z,14.47
2019-03-29T06:25:48.673Z,12.78
2019-03-29T06:28:16.184Z,12.95
2019-03-29T06:30:42.648Z,12.10
2019-03-29T06:33:09.096Z,14.28
2019-03-29T06:35:36.911Z,11.15
2019-03-29T06:38:03.438Z,11.97
2019-03-29T06:40:29.855Z,13.70
2019-03-29T06:42:56.200Z,11.95
2019-03-29T06:45:22.579Z,11.22
2019-03-29T06:47:48.949Z,12.18
2019-03-29T06:50:15.419Z,11.83
2019-03-29T06:52:41.786Z,11.90
2019-03-29T06:55:08.239Z,11.65
2019-03-29T06:57:34.620Z,11.88
2019-03-29T07:00:00.988Z,12.75
2019-03-29T07:02:27.397Z,13.35
2019-03-29T07:04:53.743Z,12.88
2019-03-29T07:07:21.152Z,12.75
2019-03-29T07:09:48.884Z,12.03
2019-03-29T07:12:15.712Z,12.15
2019-03-29T07:14:42.073Z,11.73
2019-03-29T07:17:10.304Z,11.57
2019-03-29T07:19:36.797Z,12.40
2019-03-29T07:22:03.173Z,13.08
2019-03-29T07:24:29.576Z,14.20
2019-03-29T07:26:56.018Z,16.15
2019-03-29T07:29:22.498Z,15.78
2019-03-29T07:31:48.868Z,16.07
2019-03-29T07:34:15.298Z,13.50
2019-03-29T07:36:41.675Z,13.85
2019-03-29T07:39:08.052Z,14.30
2019-03-29T07:41:34.427Z,14.85
2019-03-29T07:44:00.801Z,13.43
2019-03-29T07:46:27.149Z,13.30
2019-03-29T07:48:53.841Z,12.58
2019-03-29T07:51:20.194Z,13.32
2019-03-29T07:53:46.566Z,12.60
2019-03-29T07:56:13.070Z,12.78
2019-03-29T07:58:39.527Z,12.93
2019-03-29T08:01:05.882Z,13.35
2019-03-29T08:03:32.239Z,11.53
2019-03-29T08:05:59.691Z,11.63
2019-03-29T08:08:32.058Z,12.18
2019-03-29T08:10:54.553Z,14.13
2019-03-29T08:13:21.030Z,13.40
2019-03-29T08:15:47.465Z,12.65
2019-03-29T08:18:14.002Z,13.38
2019-03-29T08:20:43.834Z,12.50
2019-03-29T08:23:08.781Z,12.93
2019-03-29T08:25:35.274Z,12.85
2019-03-29T08:28:01.748Z,12.30
2019-03-29T08:30:28.213Z,12.65
2019-03-29T08:32:54.571Z,12.90
2019-03-29T08:35:20.973Z,11.80
2019-03-29T08:37:47.448Z,12.82
2019-03-29T08:40:16.029Z,10.78
2019-03-29T08:42:42.389Z,10.93
2019-03-29T08:45:08.747Z,12.03
2019-03-29T08:47:35.102Z,10.15
2019-03-29T08:50:01.876Z,10.80
2019-03-29T08:52:29.224Z,10.50
2019-03-29T08:54:55.654Z,10.48
2019-03-29T08:57:22.077Z,10.25
2019-03-29T08:59:48.479Z,10.35
2019-03-29T09:02:14.837Z,10.35
2019-03-29T09:04:41.207Z,9.40
2019-03-29T09:07:07.547Z,9.50
2019-03-29T09:09:33.940Z,9.68
2019-03-29T09:12:13.363Z,10.38
2019-03-29T09:14:31.291Z,9.65
2019-03-29T09:16:58.062Z,9.45
2019-03-29T09:19:24.531Z,9.55
2019-03-29T09:21:50.895Z,9.10
2019-03-29T09:24:22.329Z,8.83
2019-03-29T09:26:45.530Z,8.70
2019-03-29T09:29:11.873Z,8.75
2019-03-29T09:31:38.264Z,8.93
2019-03-29T09:34:04.720Z,8.23
2019-03-29T09:36:31.086Z,8.68
2019-03-29T09:38:57.467Z,8.38
2019-03-29T09:41:23.873Z,8.58
2019-03-29T09:43:52.602Z,8.48
2019-03-29T09:46:18.479Z,9.63
2019-03-29T09:48:44.848Z,8.13
2019-03-29T09:51:11.300Z,8.38
2019-03-29T09:53:41.064Z,8.65
2019-03-29T09:56:05.941Z,8.23
2019-03-29T09:58:32.292Z,8.00
2019-03-29T10:00:58.664Z,7.45
2019-03-29T10:03:25.014Z,7.90
2019-03-29T10:05:51.405Z,7.53
2019-03-29T10:08:17.862Z,7.60
2019-03-29T10:10:44.210Z,7.42
2019-03-29T10:13:10.615Z,7.87
2019-03-29T10:15:36.978Z,7.05
2019-03-29T10:18:03.475Z,6.60
2019-03-29T10:20:29.949Z,7.55
2019-03-29T10:22:56.403Z,7.20
2019-03-29T10:25:22.769Z,7.08
2019-03-29T10:27:49.135Z,7.08
2019-03-29T10:30:42.004Z,7.03
2019-03-29T10:33:08.467Z,6.83
2019-03-29T10:35:34.962Z,7.05
2019-03-29T10:38:01.328Z,6.97
2019-03-29T10:40:27.718Z,7.35
2019-03-29T10:42:57.952Z,7.17
2019-03-29T10:45:22.391Z,7.05
2019-03-29T10:47:48.870Z,7.83
2019-03-29T10:50:15.253Z,7.45
2019-03-29T10:52:41.654Z,7.72
2019-03-29T10:55:08.108Z,7.05
2019-03-29T10:57:34.489Z,6.92
2019-03-29T11:00:00.835Z,7.15
2019-03-29T11:02:27.208Z,7.00
2019-03-29T11:04:53.656Z,6.58
2019-03-29T11:07:20.054Z,6.65
2019-03-29T11:09:46.510Z,6.17
2019-03-29T11:12:12.862Z,8.13
2019-03-29T11:14:39.249Z,7.28
2019-03-29T11:17:05.602Z,7.20
2019-03-29T11:19:31.970Z,7.12
2019-03-29T11:21:58.366Z,6.47
2019-03-29T11:24:24.808Z,7.22
2019-03-29T11:26:51.201Z,6.97
2019-03-29T11:29:17.584Z,7.17
2019-03-29T11:31:43.919Z,6.47
2019-03-29T11:34:10.310Z,6.95
2019-03-29T11:36:36.755Z,6.83
2019-03-29T11:39:05.443Z,6.55
2019-03-29T11:41:31.890Z,6.10
2019-03-29T11:43:58.458Z,6.85
2019-03-29T11:46:24.879Z,6.55
2019-03-29T11:48:51.230Z,6.72
2019-03-29T11:51:19.650Z,6.62
2019-03-29T11:53:45.906Z,6.33
2019-03-29T11:56:12.263Z,8.25
2019-03-29T11:58:39.630Z,8.23
2019-03-29T12:01:05.972Z,7.53
2019-03-29T12:03:32.351Z,8.25
2019-03-29T12:05:58.866Z,8.03
2019-03-29T12:08:26.409Z,8.45
2019-03-29T12:10:52.886Z,6.90
2019-03-29T12:13:19.350Z,7.00
2019-03-29T12:15:45.757Z,6.85
2019-03-29T12:18:12.220Z,6.28
2019-03-29T12:20:38.742Z,6.37
2019-03-29T12:23:05.094Z,6.60
2019-03-29T12:25:31.448Z,5.72
2019-03-29T12:27:57.791Z,6.42
2019-03-29T12:30:31.802Z,6.22
2019-03-29T12:32:52.470Z,5.37
2019-03-29T12:35:18.857Z,5.00
2019-03-29T12:37:45.234Z,5.20
2019-03-29T12:40:11.604Z,5.03
2019-03-29T12:42:37.954Z,4.78
2019-03-29T12:45:04.635Z,4.75
2019-03-29T12:47:32.102Z,4.90
2019-03-29T12:49:58.597Z,4.35
2019-03-29T12:52:24.935Z,4.72
2019-03-29T12:54:52.301Z,5.08
2019-03-29T12:59:43.631Z,5.72
2019-03-29T13:02:10.140Z,4.65
2019-03-29T13:04:36.487Z,4.50
2019-03-29T13:07:02.883Z,4.95
2019-03-29T13:09:29.223Z,5.22
2019-03-29T13:11:55.578Z,6.70
2019-03-29T13:14:21.919Z,5.67
2019-03-29T13:16:49.523Z,5.53
2019-03-29T13:19:15.904Z,7.50
2019-03-29T13:21:42.359Z,7.62
2019-03-29T13:24:08.729Z,7.25
2019-03-29T13:26:35.233Z,6.75
2019-03-29T13:29:01.673Z,6.70
2019-03-29T13:31:28.048Z,7.78
2019-03-29T13:33:54.390Z,6.97
2019-03-29T13:36:20.909Z,6.58
2019-03-29T13:38:47.344Z,6.05
2019-03-29T13:41:13.790Z,6.60
2019-03-29T13:43:40.150Z,6.78
2019-03-29T13:46:06.524Z,5.47
2019-03-29T13:48:32.872Z,6.00
2019-03-29T13:50:59.728Z,5.58
2019-03-29T13:53:26.275Z,5.20
2019-03-29T13:55:52.694Z,6.10
2019-03-29T13:58:19.164Z,5.17
2019-03-29T14:00:45.534Z,5.12
2019-03-29T14:03:11.935Z,5.40
2019-03-29T14:05:38.382Z,5.50
2019-03-29T14:08:04.962Z,5.40
2019-03-29T14:10:31.322Z,5.37
2019-03-29T14:12:58.078Z,4.87
2019-03-29T14:15:24.440Z,5.78
2019-03-29T14:17:50.857Z,5.25
2019-03-29T14:20:26.847Z,5.55
2019-03-29T14:22:53.342Z,6.50
2019-03-29T14:25:19.729Z,5.72
2019-03-29T14:27:46.121Z,5.67
2019-03-29T14:30:12.472Z,6.03
2019-03-29T14:32:38.863Z,5.85
2019-03-29T14:35:06.520Z,6.33
2019-03-29T14:37:32.925Z,9.00
2019-03-29T14:39:59.310Z,26.75
2019-03-29T14:42:25.678Z,31.60
2019-03-29T14:44:53.218Z,26.73
2019-03-29T14:47:19.728Z,19.02
2019-03-29T14:49:46.195Z,20.92
2019-03-29T14:52:12.589Z,22.98
2019-03-29T14:54:38.947Z,19.35
2019-03-29T14:57:05.653Z,18.85
2019-03-29T14:59:32.197Z,24.57
2019-03-29T15:01:58.675Z,20.50
2019-03-29T15:04:25.137Z,18.98
2019-03-29T15:06:51.498Z,17.55
2019-03-29T15:09:17.867Z,18.12
2019-03-29T15:11:44.287Z,14.78
2019-03-29T15:14:10.736Z,13.85
2019-03-29T15:16:37.091Z,14.75
2019-03-29T15:19:03.488Z,15.05
2019-03-29T15:21:29.873Z,14.05
2019-03-29T15:23:56.277Z,13.00
2019-03-29T15:26:22.725Z,13.22
2019-03-29T15:28:49.121Z,12.55
2019-03-29T15:31:15.534Z,13.78
2019-03-29T15:33:41.888Z,14.23
2019-03-29T15:36:08.253Z,13.35
2019-03-29T15:38:35.521Z,14.58
2019-03-29T15:41:01.898Z,13.72
2019-03-29T15:43:28.385Z,12.70
2019-03-29T15:45:54.732Z,13.25
2019-03-29T15:48:21.078Z,11.60
2019-03-29T15:50:48.933Z,12.15
2019-03-29T15:53:15.389Z,12.25
2019-03-29T15:55:41.785Z,11.28
2019-03-29T15:58:08.183Z,11.48
2019-03-29T16:00:34.571Z,13.08
2019-03-29T16:03:01.143Z,11.90
2019-03-29T16:05:28.593Z,10.98
2019-03-29T16:07:55.012Z,11.65
2019-03-29T16:10:21.448Z,10.82
2019-03-29T16:12:48.827Z,8.93
2019-03-29T16:15:15.179Z,9.73
2019-03-29T16:17:41.642Z,9.55
2019-03-29T16:20:07.991Z,9.20
2019-03-29T16:22:34.392Z,8.73
2019-03-29T16:25:00.778Z,8.78
2019-03-29T16:27:30.482Z,8.78
2019-03-29T16:29:56.833Z,8.73
2019-03-29T16:32:23.192Z,8.60
2019-03-29T16:34:50.846Z,14.20
2019-03-29T16:37:17.412Z,15.40
2019-03-29T16:39:43.774Z,16.95
2019-03-29T16:42:10.137Z,15.45
2019-03-29T16:44:36.513Z,13.55
2019-03-29T16:47:02.976Z,14.00
2019-03-29T16:49:29.340Z,12.95
2019-03-29T16:51:55.704Z,12.07
2019-03-29T16:54:22.353Z,12.05
2019-03-29T16:56:48.833Z,12.13
2019-03-29T16:59:15.406Z,13.93
2019-03-29T17:01:42.874Z,13.32
2019-03-29T17:04:09.252Z,13.55
2019-03-29T17:06:35.620Z,12.25
2019-03-29T17:09:04.903Z,13.60
2019-03-29T17:11:31.552Z,12.85
2019-03-29T17:13:57.911Z,11.88
2019-03-29T17:16:30.393Z,11.43
2019-03-29T17:18:52.686Z,11.53
2019-03-29T17:21:19.144Z,12.43
2019-03-29T17:23:45.668Z,11.33
2019-03-29T17:26:12.225Z,12.65
2019-03-29T17:28:38.808Z,12.05
2019-03-29T17:31:07.095Z,12.35
2019-03-29T17:33:33.442Z,11.30
2019-03-29T17:35:59.835Z,270.30
2019-03-29T17:38:26.412Z,425.90
2019-03-29T17:40:52.783Z,536.25
2019-03-29T17:43:19.122Z,444.65
2019-03-29T17:45:45.580Z,436.68
2019-03-29T17:48:12.127Z,420.60
2019-03-29T17:50:38.506Z,433.57
2019-03-29T17:53:06.776Z,456.23
2019-03-29T17:55:33.184Z,396.70
2019-03-29T17:57:59.549Z,391.95
2019-03-29T18:00:27.524Z,369.37
2019-03-29T18:02:53.898Z,366.98
2019-03-29T18:05:20.368Z,380.65
2019-03-29T18:07:47.112Z,374.73
2019-03-29T18:10:13.738Z,379.05
2019-03-29T18:12:40.129Z,376.88
2019-03-29T18:15:06.935Z,356.32
2019-03-29T18:17:33.440Z,369.60
2019-03-29T18:19:59.795Z,379.52
2019-03-29T18:22:26.295Z,369.60
2019-03-29T18:24:53.312Z,365.75
2019-03-29T18:27:19.694Z,376.02
2019-03-29T18:29:46.068Z,357.98
2019-03-29T18:32:12.436Z,337.40
2019-03-29T18:34:41.592Z,356.30
2019-03-29T18:37:07.200Z,336.18
2019-03-29T18:39:34.847Z,331.35
2019-03-29T18:42:01.346Z,337.63
2019-03-29T18:44:27.712Z,338.85
2019-03-29T18:46:54.089Z,347.00
2019-03-29T18:49:20.474Z,332.98
2019-03-29T18:51:47.099Z,329.68
2019-03-29T18:54:13.617Z,327.07
2019-03-29T18:56:39.992Z,320.02
2019-03-29T18:59:06.476Z,311.75
2019-03-29T19:01:32.846Z,311.57
2019-03-29T19:03:59.314Z,304.00
2019-03-29T19:06:25.738Z,303.15
2019-03-29T19:08:52.130Z,312.93
2019-03-29T19:11:18.477Z,298.43
2019-03-29T19:13:44.868Z,295.07
2019-03-29T19:16:11.232Z,297.50
2019-03-29T19:18:37.625Z,296.45
2019-03-29T19:21:04.124Z,299.05
2019-03-29T19:23:30.486Z,290.12
2019-03-29T19:25:56.879Z,291.98
2019-03-29T19:28:23.346Z,290.60
2019-03-29T19:30:49.737Z,282.95
2019-03-29T19:33:16.204Z,285.38
2019-03-29T19:35:42.593Z,282.85
2019-03-29T19:38:09.084Z,284.92
2019-03-29T19:40:35.609Z,278.60
2019-03-29T19:43:02.069Z,271.15
2019-03-29T19:45:28.445Z,276.40
2019-03-29T19:47:54.885Z,258.10
2019-03-29T19:50:21.355Z,255.47
2019-03-29T19:52:47.908Z,267.27
2019-03-29T19:55:14.487Z,260.65
2019-03-29T19:57:41.126Z,238.43
2019-03-29T20:00:12.504Z,237.60
2019-03-29T20:02:38.981Z,237.55
2019-03-29T20:05:09.234Z,249.52
2019-03-29T20:07:35.705Z,246.65
2019-03-29T20:10:05.167Z,249.22
2019-03-29T20:12:31.539Z,240.22
2019-03-29T20:14:58.013Z,240.65
2019-03-29T20:17:27.660Z,238.87
2019-03-29T20:19:52.767Z,240.12
2019-03-29T20:22:19.186Z,235.43
2019-03-29T20:24:45.660Z,239.20
2019-03-29T20:27:12.040Z,230.57
2019-03-29T20:29:38.407Z,234.27
2019-03-29T20:32:04.803Z,233.53
2019-03-29T20:34:31.573Z,226.25
2019-03-29T20:36:59.141Z,226.32
2019-03-29T20:39:25.512Z,226.90
2019-03-29T20:41:52.421Z,225.30
2019-03-29T20:44:18.820Z,217.40
2019-03-29T20:46:45.219Z,218.20
2019-03-29T20:49:11.590Z,216.15
2019-03-29T20:51:38.034Z,213.15
2019-03-29T20:54:04.495Z,213.32
2019-03-29T20:56:31.050Z,213.32
2019-03-29T20:58:57.539Z,209.32
2019-03-29T21:01:23.902Z,210.32
2019-03-29T21:03:50.272Z,209.95
2019-03-29T21:06:16.827Z,201.73
2019-03-29T21:08:43.245Z,203.47
2019-03-29T21:11:09.683Z,205.87
2019-03-29T21:13:36.080Z,199.50
2019-03-29T21:16:02.734Z,194.30
2019-03-29T21:18:29.126Z,198.02
2019-03-29T21:20:55.503Z,200.35
2019-03-29T21:23:21.888Z,193.15
2019-03-29T21:25:48.304Z,191.05
2019-03-29T21:28:14.861Z,201.47
2019-03-29T21:30:41.263Z,178.47
2019-03-29T21:33:07.758Z,181.95
2019-03-29T21:35:34.089Z,185.67
2019-03-29T21:38:00.455Z,185.10
2019-03-29T21:40:26.919Z,180.37
2019-03-29T21:42:54.515Z,180.30
2019-03-29T21:45:28.633Z,174.55
2019-03-29T21:48:01.908Z,172.05
2019-03-29T21:50:17.552Z,176.30
2019-03-29T21:52:43.904Z,174.65
2019-03-29T21:55:11.387Z,169.50
2019-03-29T21:57:37.754Z,168.90
2019-03-29T22:00:09.136Z,167.47
2019-03-29T22:02:35.741Z,166.00
2019-03-29T22:05:02.845Z,166.62
2019-03-29T22:07:29.305Z,165.68
2019-03-29T22:09:57.286Z,165.25
2019-03-29T22:12:23.724Z,161.52
2019-03-29T22:14:50.095Z,159.63
2019-03-29T22:17:16.526Z,160.37
2019-03-29T22:19:42.885Z,155.10
2019-03-29T22:22:09.253Z,158.15
2019-03-29T22:24:35.616Z,154.10
2019-03-29T22:27:02.100Z,154.32
2019-03-29T22:29:28.476Z,152.75
2019-03-29T22:31:54.950Z,154.23
2019-03-29T22:34:21.501Z,150.18
2019-03-29T22:36:47.905Z,145.70
2019-03-29T22:39:14.346Z,148.87
2019-03-29T22:41:40.843Z,148.17
2019-03-29T22:44:07.179Z,147.05
2019-03-29T22:46:33.574Z,147.22
2019-03-29T22:49:00.044Z,141.75
2019-03-29T22:51:26.680Z,141.88
2019-03-29T22:53:55.704Z,140.88
2019-03-29T22:56:26.269Z,137.70
2019-03-29T22:58:53.400Z,142.07
2019-03-29T23:01:19.809Z,131.25
2019-03-29T23:03:47.314Z,138.75
2019-03-29T23:06:13.708Z,135.00
2019-03-29T23:08:40.142Z,134.90
2019-03-29T23:11:06.490Z,132.45
2019-03-29T23:13:34.262Z,125.72
2019-03-29T23:16:00.622Z,130.32
2019-03-29T23:18:27.091Z,129.90
2019-03-29T23:20:53.446Z,129.25
2019-03-29T23:23:19.848Z,126.47
2019-03-29T23:25:46.608Z,130.52
2019-03-29T23:28:12.982Z,127.42
2019-03-29T23:30:39.456Z,123.15
2019-03-29T23:33:05.935Z,125.90
2019-03-29T23:35:32.392Z,126.75
2019-03-29T23:37:58.764Z,125.92
2019-03-29T23:40:25.230Z,122.65
2019-03-29T23:42:51.792Z,121.02
2019-03-29T23:45:18.250Z,121.17
2019-03-29T23:47:44.742Z,119.47
2019-03-29T23:50:11.120Z,117.28
2019-03-29T23:52:37.463Z,119.87
2019-03-29T23:55:04.326Z,116.65
2019-03-29T23:57:30.693Z,111.28
2019-03-29T23:59:57.061Z,116.37
